Time;durP1;ratioP1;P1;durP2;ratioP2;P2;SDS_P1;SDS_P2;PMS_P1;PMS_P2;Temp;Humidity;BMP_temperature;BMP_pressure;BME280_temperature;BME280_humidity;BME280_pressure;Samples;Min_cycle;Max_cycle;Signal;HPM_P1;HPM_P2
2023/12/01 00:00:05;;;;;;;20.60;13.57;;;-3274.00;87.70;;;;;;5052751;28;20363;-47
2023/12/01 00:02:34;;;;;;;22.55;13.90;;;-3273.90;87.50;;;;;;5060202;28;20028;-49
2023/12/01 00:05:00;;;;;;;21.88;14.88;;;-3273.90;87.60;;;;;;5070175;28;20492;-45
2023/12/01 00:07:25;;;;;;;22.05;14.75;;;-3273.90;87.60;;;;;;5052372;28;20021;-46
2023/12/01 00:09:55;;;;;;;22.00;14.32;;;-3273.90;87.50;;;;;;5052844;28;20021;-47
2023/12/01 00:12:22;;;;;;;21.98;13.88;;;-3273.80;87.40;;;;;;5049633;28;20025;-48
2023/12/01 00:14:50;;;;;;;21.33;14.18;;;-3273.80;87.30;;;;;;5082013;28;20032;-44
2023/12/01 00:17:17;;;;;;;23.27;14.60;;;-3273.80;87.40;;;;;;5073697;28;20412;-48
2023/12/01 00:19:46;;;;;;;25.00;13.70;;;-3273.80;87.50;;;;;;5072353;28;20033;-45
2023/12/01 00:22:15;;;;;;;21.10;14.23;;;-3273.80;87.50;;;;;;5072330;28;20039;-45
2023/12/01 00:24:45;;;;;;;20.27;13.23;;;-3273.70;87.20;;;;;;5078009;28;20040;-45
2023/12/01 00:27:15;;;;;;;23.67;14.05;;;-3273.60;87.30;;;;;;5088734;28;20020;-46
2023/12/01 00:29:42;;;;;;;;;;;-3273.60;87.40;;;;;;5088757;28;20029;-45
2023/12/01 00:32:08;;;;;;;25.58;15.88;;;-3273.60;87.70;;;;;;5075948;28;19904;-45
2023/12/01 00:34:35;;;;;;;23.00;15.05;;;-3273.60;87.50;;;;;;5058504;28;20512;-44
2023/12/01 00:37:23;;;;;;;23.40;12.95;;;-3273.60;87.50;;;;;;5056336;28;20174;-47
2023/12/01 00:39:50;;;;;;;23.45;14.40;;;-3273.50;87.50;;;;;;5055480;28;20037;-44
2023/12/01 00:42:21;;;;;;;25.05;14.15;;;-3273.50;87.40;;;;;;5060426;28;20028;-46
2023/12/01 00:44:47;;;;;;;23.42;13.23;;;-3273.50;87.40;;;;;;5089476;28;20433;-45
2023/12/01 00:47:14;;;;;;;20.20;13.90;;;-3273.40;87.30;;;;;;5070386;28;20039;-44
2023/12/01 00:49:41;;;;;;;20.15;13.60;;;-3273.50;87.40;;;;;;5090606;28;20020;-49
2023/12/01 00:52:09;;;;;;;24.67;14.13;;;-3273.50;87.20;;;;;;5072112;28;20573;-45
2023/12/01 00:54:38;;;;;;;25.00;13.85;;;-3273.50;87.10;;;;;;5068381;28;20033;-50
2023/12/01 00:57:04;;;;;;;22.17;14.53;;;-3273.40;86.80;;;;;;5072220;28;20028;-49
2023/12/01 00:59:30;;;;;;;22.65;13.60;;;-3273.40;86.80;;;;;;5074726;28;20275;-46
2023/12/01 01:01:56;;;;;;;22.30;13.95;;;-3273.40;87.00;;;;;;5068391;28;20468;-43
2023/12/01 01:04:27;;;;;;;22.35;13.98;;;-3273.40;86.90;;;;;;5060693;28;20017;-46
2023/12/01 01:06:57;;;;;;;21.70;13.40;;;-3273.40;86.90;;;;;;5058951;28;20477;-45
2023/12/01 01:09:23;;;;;;;25.08;13.57;;;-3273.40;86.90;;;;;;5055191;28;20152;-46
2023/12/01 01:11:53;;;;;;;24.88;14.52;;;-3273.40;86.70;;;;;;5034470;28;20124;-47
2023/12/01 01:14:20;;;;;;;23.20;15.13;;;-3273.30;86.50;;;;;;5059756;28;20024;-48
2023/12/01 01:16:49;;;;;;;25.92;17.20;;;-3273.20;86.40;;;;;;5077252;28;20060;-49
2023/12/01 01:19:18;;;;;;;25.70;14.93;;;-3273.20;86.70;;;;;;5065977;28;20416;-46
2023/12/01 01:21:46;;;;;;;24.20;14.95;;;-3273.20;86.80;;;;;;5089240;28;20051;-46
2023/12/01 01:24:13;;;;;;;21.52;14.18;;;-3273.20;86.70;;;;;;5076089;28;20017;-47
2023/12/01 01:26:41;;;;;;;26.08;14.52;;;-3273.10;86.40;;;;;;5095014;28;20036;-45
2023/12/01 01:29:10;;;;;;;20.15;12.50;;;-3273.10;86.30;;;;;;5095165;28;20032;-46
2023/12/01 01:31:38;;;;;;;21.40;12.73;;;-3272.90;86.40;;;;;;5075117;28;20024;-45
2023/12/01 01:34:08;;;;;;;20.48;12.65;;;-3272.80;86.60;;;;;;5054671;28;20039;-48
2023/12/01 01:36:36;;;;;;;18.00;11.70;;;-3272.80;86.60;;;;;;5054803;28;20033;-46
2023/12/01 01:39:04;;;;;;;19.42;11.95;;;-3272.70;86.20;;;;;;5056878;28;20034;-48
2023/12/01 01:41:32;;;;;;;19.52;12.00;;;-3272.60;86.40;;;;;;5074211;28;20420;-44
2023/12/01 01:43:59;;;;;;;19.27;11.32;;;-3272.60;86.50;;;;;;5074097;28;20025;-45
2023/12/01 01:46:31;;;;;;;15.95;10.55;;;-3272.50;86.50;;;;;;5052082;28;20477;-43
2023/12/01 01:49:00;;;;;;;16.98;10.13;;;-3272.50;86.40;;;;;;5036266;28;20110;-46
2023/12/01 01:51:31;;;;;;;16.92;10.93;;;-3272.50;86.30;;;;;;5070588;28;20338;-44
2023/12/01 01:54:03;;;;;;;16.83;10.05;;;-3272.40;86.00;;;;;;5074373;28;20032;-46
2023/12/01 01:56:33;;;;;;;15.38;8.82;;;-3272.30;85.70;;;;;;5069072;28;20082;-44
2023/12/01 01:58:59;;;;;;;16.58;9.48;;;-3272.30;85.50;;;;;;5036988;28;20029;-44
2023/12/01 02:01:26;;;;;;;16.42;9.60;;;-3272.40;85.90;;;;;;5062969;28;20024;-44
2023/12/01 02:03:59;;;;;;;16.20;9.48;;;-3272.40;85.90;;;;;;5054009;28;20033;-45
2023/12/01 02:06:30;;;;;;;28.52;14.85;;;-3272.40;86.00;;;;;;5053877;28;20444;-44
2023/12/01 02:09:00;;;;;;;29.33;16.95;;;-3272.40;86.10;;;;;;5070705;28;20077;-44
2023/12/01 02:11:27;;;;;;;27.83;15.60;;;-3272.40;86.20;;;;;;5063736;28;20029;-46
2023/12/01 02:13:59;;;;;;;27.13;15.95;;;-3272.50;86.20;;;;;;5070300;28;20031;-44
2023/12/01 02:16:26;;;;;;;24.45;15.85;;;-3272.50;86.30;;;;;;5062962;28;20025;-44
2023/12/01 02:18:54;;;;;;;31.90;16.40;;;-3272.50;86.40;;;;;;5053982;28;20040;-44
2023/12/01 02:21:36;;;;;;;22.58;15.50;;;-3272.50;86.40;;;;;;5058720;28;20104;-45
2023/12/01 02:24:08;;;;;;;23.38;14.25;;;-3272.50;86.40;;;;;;5056332;28;20033;-44
2023/12/01 02:26:34;;;;;;;27.60;16.67;;;-3272.50;86.40;;;;;;5066018;28;20025;-47
2023/12/01 02:29:14;;;;;;;22.13;13.18;;;-3272.50;86.50;;;;;;5053893;28;20171;-44
2023/12/01 02:31:42;;;;;;;23.17;13.23;;;-3272.40;86.30;;;;;;5067702;28;20099;-45
2023/12/01 02:34:10;;;;;;;29.92;16.75;;;-3272.40;86.40;;;;;;5068392;28;20091;-43
2023/12/01 02:36:43;;;;;;;26.67;17.10;;;-3272.40;86.40;;;;;;5052776;28;20021;-44
2023/12/01 02:39:13;;;;;;;26.30;15.13;;;-3272.40;86.40;;;;;;5053509;28;20119;-43
2023/12/01 02:41:41;;;;;;;26.58;14.93;;;-3272.40;86.40;;;;;;5064720;28;20037;-45
2023/12/01 02:44:08;;;;;;;23.98;14.18;;;-3272.40;86.20;;;;;;5053375;28;20032;-45
2023/12/01 02:46:35;;;;;;;27.27;14.82;;;-3272.40;86.30;;;;;;5053315;28;20035;-44
2023/12/01 02:49:02;;;;;;;25.15;14.50;;;-3272.40;86.10;;;;;;5057567;28;20451;-44
2023/12/01 02:51:33;;;;;;;22.77;13.35;;;-3272.30;85.90;;;;;;5082334;28;20427;-44
2023/12/01 02:54:01;;;;;;;26.45;15.93;;;-3272.30;86.00;;;;;;5077767;28;20032;-44
2023/12/01 02:56:28;;;;;;;22.45;13.18;;;-3272.30;86.00;;;;;;5085467;28;20099;-44
2023/12/01 02:58:57;;;;;;;28.63;16.63;;;-3272.40;86.10;;;;;;5065346;28;20444;-45
2023/12/01 03:01:25;;;;;;;28.42;16.80;;;-3272.40;85.90;;;;;;5093439;28;20031;-45
2023/12/01 03:03:52;;;;;;;29.05;16.45;;;-3272.30;85.80;;;;;;5083093;28;20040;-44
2023/12/01 03:06:19;;;;;;;25.73;13.90;;;-3272.30;86.10;;;;;;5053048;28;20027;-44
2023/12/01 03:08:48;;;;;;;22.80;13.15;;;-3272.30;86.10;;;;;;5067075;28;20075;-45
2023/12/01 03:11:22;;;;;;;22.57;12.87;;;-3272.30;86.10;;;;;;5072973;28;20107;-45
2023/12/01 03:13:47;;;;;;;19.55;11.82;;;-3272.30;86.40;;;;;;5059802;28;20287;-44
2023/12/01 03:16:13;;;;;;;20.08;11.90;;;-3272.30;86.20;;;;;;5035214;28;20039;-44
2023/12/01 03:18:41;;;;;;;20.52;12.82;;;-3272.30;86.30;;;;;;5061697;28;20397;-43
2023/12/01 03:21:12;;;;;;;49.60;26.27;;;-3272.30;86.00;;;;;;5052868;28;20045;-44
2023/12/01 03:23:41;;;;;;;59.35;32.60;;;-3272.30;86.10;;;;;;5045338;28;20493;-45
2023/12/01 03:26:08;;;;;;;46.63;25.70;;;-3272.30;86.40;;;;;;5053622;28;20029;-44
2023/12/01 03:28:34;;;;;;;29.80;16.80;;;-3272.20;86.50;;;;;;5068951;28;20033;-48
2023/12/01 03:31:02;;;;;;;27.85;16.48;;;-3272.30;86.50;;;;;;5070359;28;20078;-43
2023/12/01 03:33:31;;;;;;;31.10;18.23;;;-3272.20;86.60;;;;;;5034849;28;20508;-45
2023/12/01 03:35:58;;;;;;;31.20;19.30;;;-3272.30;86.70;;;;;;5039777;28;20045;-47
2023/12/01 03:38:27;;;;;;;31.42;20.38;;;-3272.30;86.70;;;;;;5072580;28;20090;-44
2023/12/01 03:40:54;;;;;;;31.65;18.95;;;-3272.20;86.60;;;;;;5053802;28;20087;-44
2023/12/01 03:43:20;;;;;;;30.38;19.23;;;-3272.30;86.70;;;;;;5052624;28;20029;-45
2023/12/01 03:45:45;;;;;;;27.55;18.55;;;-3272.30;86.80;;;;;;5035038;28;20508;-45
2023/12/01 03:48:12;;;;;;;27.20;17.08;;;-3272.30;86.80;;;;;;5063998;28;20029;-44
2023/12/01 03:50:40;;;;;;;19.65;13.48;;;-3272.40;86.60;;;;;;5056713;28;20059;-44
2023/12/01 03:53:08;;;;;;;22.23;12.93;;;-3272.30;86.30;;;;;;5056394;28;20032;-45
2023/12/01 03:55:34;;;;;;;23.25;13.82;;;-3272.20;86.60;;;;;;5039019;28;20025;-45
2023/12/01 03:58:04;;;;;;;21.20;13.02;;;-3272.20;86.40;;;;;;5071519;28;20040;-46
2023/12/01 04:00:35;;;;;;;21.20;13.63;;;-3272.20;86.50;;;;;;5057323;28;20032;-46
2023/12/01 04:03:02;;;;;;;21.42;14.05;;;-3272.20;86.50;;;;;;5056504;28;20053;-44
2023/12/01 04:05:28;;;;;;;24.88;13.90;;;-3272.20;86.40;;;;;;5056857;28;20025;-45
2023/12/01 04:07:58;;;;;;;26.50;15.27;;;-3272.20;86.50;;;;;;5076249;28;20032;-49
2023/12/01 04:10:27;;;;;;;41.08;19.52;;;-3272.10;86.40;;;;;;5071282;28;20041;-45
2023/12/01 04:13:08;;;;;;;34.63;17.08;;;-3272.10;86.60;;;;;;5062742;28;20059;-45
2023/12/01 04:15:39;;;;;;;35.15;18.38;;;-3272.20;86.70;;;;;;5079683;28;20033;-46
2023/12/01 04:18:19;;;;;;;31.58;16.60;;;-3272.20;86.90;;;;;;5065103;28;20102;-44
2023/12/01 04:20:46;;;;;;;26.75;14.90;;;-3272.30;87.20;;;;;;5056194;28;20029;-45
2023/12/01 04:23:14;;;;;;;26.80;14.00;;;-3272.30;87.70;;;;;;5059262;28;20032;-46
2023/12/01 04:25:48;;;;;;;21.30;12.27;;;-3272.40;88.00;;;;;;5040829;28;20029;-44
2023/12/01 04:28:14;;;;;;;20.75;12.27;;;-3272.30;88.30;;;;;;5076301;28;20056;-44
2023/12/01 04:30:43;;;;;;;23.05;13.13;;;-3272.40;88.60;;;;;;5075936;28;20063;-45
2023/12/01 04:33:13;;;;;;;22.27;12.43;;;-3272.40;88.50;;;;;;5043624;28;20488;-45
2023/12/01 04:35:39;;;;;;;24.38;13.75;;;-3272.50;88.90;;;;;;5066995;28;20021;-46
2023/12/01 04:38:10;;;;;;;26.48;13.68;;;-3272.60;89.20;;;;;;5055907;28;20021;-47
2023/12/01 04:40:37;;;;;;;22.10;12.88;;;-3272.60;89.00;;;;;;5055651;28;20021;-48
2023/12/01 04:43:05;;;;;;;23.13;13.25;;;-3272.70;88.90;;;;;;5074301;28;20081;-44
2023/12/01 04:45:33;;;;;;;23.33;13.98;;;-3272.70;88.60;;;;;;5075411;28;20025;-46
2023/12/01 04:47:59;;;;;;;27.77;16.88;;;-3272.70;88.80;;;;;;5068043;28;20390;-47
2023/12/01 04:50:29;;;;;;;32.08;18.90;;;-3272.70;88.10;;;;;;5055256;28;20441;-47
2023/12/01 04:53:08;;;;;;;24.95;15.35;;;-3272.70;88.30;;;;;;5069473;28;20373;-46
2023/12/01 04:55:39;;;;;;;21.42;13.63;;;-3272.70;88.10;;;;;;5022727;28;20036;-47
2023/12/01 04:58:07;;;;;;;19.00;12.10;;;-3272.60;87.40;;;;;;5054272;28;20041;-44
2023/12/01 05:00:37;;;;;;;23.60;15.20;;;-3272.60;87.70;;;;;;5069274;28;20107;-45
2023/12/01 05:03:10;;;;;;;27.67;16.83;;;-3272.60;87.50;;;;;;5075230;28;20412;-48
2023/12/01 05:05:41;;;;;;;25.42;14.70;;;-3272.60;87.70;;;;;;5075578;28;20033;-44
2023/12/01 05:08:13;;;;;;;29.75;17.40;;;-3272.60;87.90;;;;;;5046711;28;20330;-46
2023/12/01 05:10:44;;;;;;;25.23;15.18;;;-3272.60;88.00;;;;;;5037318;28;20357;-48
2023/12/01 05:13:16;;;;;;;27.52;16.13;;;-3272.70;88.20;;;;;;5070411;28;20082;-44
2023/12/01 05:15:43;;;;;;;26.17;16.08;;;-3272.70;88.30;;;;;;5085915;28;20118;-46
2023/12/01 05:18:12;;;;;;;31.30;17.10;;;-3272.80;88.60;;;;;;5036340;28;20370;-47
2023/12/01 05:20:38;;;;;;;;;;;-3272.80;88.60;;;;;;5073062;28;20036;-43
2023/12/01 05:23:09;;;;;;;32.70;18.42;;;-3272.90;88.80;;;;;;5074510;28;19920;-46
2023/12/01 05:25:55;;;;;;;30.85;19.42;;;-3273.00;88.80;;;;;;5062682;28;20033;-45
2023/12/01 05:28:21;;;;;;;39.20;22.08;;;-3273.00;89.00;;;;;;5079805;28;20333;-47
2023/12/01 05:30:48;;;;;;;30.85;17.73;;;-3273.10;88.90;;;;;;5075367;28;20023;-45
2023/12/01 05:33:16;;;;;;;29.30;16.17;;;-3273.10;89.20;;;;;;5052492;28;20043;-44
2023/12/01 05:35:46;;;;;;;28.95;16.67;;;-3273.20;89.20;;;;;;5055802;28;20052;-45
2023/12/01 05:38:18;;;;;;;30.27;16.60;;;-3273.30;89.50;;;;;;5049386;28;20037;-47
2023/12/01 05:40:45;;;;;;;31.60;18.27;;;-3273.30;89.50;;;;;;5070756;28;20028;-44
2023/12/01 05:43:16;;;;;;;27.80;16.73;;;-3273.40;89.70;;;;;;5059123;28;20128;-45
2023/12/01 05:45:45;;;;;;;32.63;18.90;;;-3273.50;89.50;;;;;;5076377;28;20036;-45
2023/12/01 05:48:12;;;;;;;;;;;-3273.50;89.50;;;;;;5061296;28;20048;-44
2023/12/01 05:50:42;;;;;;;32.78;17.77;;;-3273.50;89.70;;;;;;5072753;28;20265;-46
2023/12/01 05:53:08;;;;;;;34.47;18.83;;;-3273.60;89.70;;;;;;5073642;28;20039;-44
2023/12/01 05:55:36;;;;;;;30.48;18.20;;;-3273.70;90.00;;;;;;5073639;28;20029;-45
2023/12/01 05:58:12;;;;;;;32.15;17.88;;;-3273.70;89.80;;;;;;5070981;28;20070;-44
2023/12/01 06:00:40;;;;;;;36.13;19.35;;;-3273.80;89.70;;;;;;5053787;28;20035;-44
2023/12/01 06:03:10;;;;;;;32.53;18.85;;;-3273.80;89.80;;;;;;5079095;28;20341;-46
2023/12/01 06:05:39;;;;;;;29.73;17.95;;;-3273.90;89.80;;;;;;5080939;28;20040;-45
2023/12/01 06:08:11;;;;;;;37.03;19.67;;;-3273.90;89.80;;;;;;5081006;28;20451;-45
2023/12/01 06:10:41;;;;;;;36.30;20.85;;;-3273.90;89.80;;;;;;5077209;28;20111;-45
2023/12/01 06:13:10;;;;;;;35.55;19.20;;;-3273.90;89.80;;;;;;5056255;28;20036;-46
2023/12/01 06:15:39;;;;;;;31.05;17.92;;;-3273.90;90.00;;;;;;5073581;28;20024;-45
2023/12/01 06:18:08;;;;;;;32.13;18.33;;;-3273.90;90.20;;;;;;5070496;28;20052;-45
2023/12/01 06:20:37;;;;;;;27.98;18.70;;;-3274.10;90.30;;;;;;5072536;28;20040;-47
2023/12/01 06:23:07;;;;;;;31.92;20.25;;;-3274.10;90.20;;;;;;5056291;28;20025;-45
2023/12/01 06:25:41;;;;;;;32.60;20.95;;;-3274.10;90.20;;;;;;5081251;28;20036;-45
2023/12/01 06:28:09;;;;;;;37.63;22.70;;;-3274.20;90.30;;;;;;5087833;28;20329;-44
2023/12/01 06:30:35;;;;;;;36.95;21.73;;;-3274.20;90.20;;;;;;5089340;28;20028;-46
2023/12/01 06:33:06;;;;;;;37.92;20.60;;;-3274.30;90.20;;;;;;5055156;28;20060;-45
2023/12/01 06:35:37;;;;;;;29.92;18.48;;;-3274.30;90.20;;;;;;5059138;28;20032;-44
2023/12/01 06:38:07;;;;;;;30.48;17.73;;;-3274.40;90.20;;;;;;5073383;28;20056;-45
2023/12/01 06:40:36;;;;;;;33.30;18.58;;;-3274.40;90.20;;;;;;5075868;28;20029;-47
2023/12/01 06:43:09;;;;;;;36.63;21.55;;;-3274.40;90.20;;;;;;5081752;28;20035;-46
2023/12/01 06:45:46;;;;;;;52.13;29.60;;;-3274.40;90.20;;;;;;5040850;28;20331;-44
2023/12/01 06:48:13;;;;;;;44.97;25.15;;;-3274.50;90.20;;;;;;5055539;28;20034;-45
2023/12/01 06:50:41;;;;;;;44.53;25.00;;;-3274.60;90.20;;;;;;5083311;28;20025;-46
2023/12/01 06:53:10;;;;;;;39.63;23.15;;;-3274.60;90.20;;;;;;5053509;28;20380;-44
2023/12/01 06:55:37;;;;;;;36.83;21.08;;;-3274.60;90.10;;;;;;5053994;28;20583;-45
2023/12/01 06:58:03;;;;;;;34.90;21.70;;;-3274.60;90.20;;;;;;5081175;28;20036;-43
2023/12/01 07:00:33;;;;;;;35.35;19.52;;;-3274.60;90.30;;;;;;5079818;28;20031;-45
2023/12/01 07:03:09;;;;;;;37.63;20.92;;;-3274.60;90.40;;;;;;5090948;28;20501;-45
2023/12/01 07:05:39;;;;;;;35.03;19.85;;;-3274.60;90.30;;;;;;5054929;28;20052;-47
2023/12/01 07:08:12;;;;;;;35.33;21.08;;;-3274.60;90.40;;;;;;5077688;28;20063;-49
2023/12/01 07:10:39;;;;;;;35.80;21.65;;;-3274.60;90.60;;;;;;5052327;28;20041;-49
2023/12/01 07:13:10;;;;;;;34.70;20.85;;;-3274.70;90.70;;;;;;5072425;28;20444;-47
2023/12/01 07:15:37;;;;;;;32.20;20.02;;;-3274.80;90.80;;;;;;5071650;28;20032;-45
2023/12/01 07:18:09;;;;;;;36.53;21.95;;;-3274.80;90.70;;;;;;5071098;28;20171;-48
2023/12/01 07:20:35;;;;;;;36.95;19.83;;;-3274.80;90.50;;;;;;5070411;28;20039;-46
2023/12/01 07:23:01;;;;;;;36.15;19.83;;;-3274.80;90.50;;;;;;5068739;28;20520;-46
2023/12/01 07:25:28;;;;;;;35.92;21.30;;;-3274.80;90.70;;;;;;5077662;28;20067;-44
2023/12/01 07:28:12;;;;;;;32.95;20.38;;;-3274.80;90.70;;;;;;5076423;28;20098;-44
2023/12/01 07:30:40;;;;;;;34.70;18.73;;;-3274.90;90.60;;;;;;5052330;28;20025;-45
2023/12/01 07:33:08;;;;;;;32.63;20.60;;;-3274.90;90.60;;;;;;5052452;28;20431;-44
2023/12/01 07:35:39;;;;;;;33.38;21.00;;;-3274.90;90.60;;;;;;5035113;28;20044;-45
2023/12/01 07:38:06;;;;;;;37.80;21.15;;;-3274.90;90.70;;;;;;5067750;28;20021;-45
2023/12/01 07:40:33;;;;;;;38.75;21.58;;;-3274.90;90.60;;;;;;5054518;28;20063;-44
2023/12/01 07:42:59;;;;;;;38.22;23.08;;;-3275.00;90.70;;;;;;5071583;28;20433;-46
2023/12/01 07:45:25;;;;;;;39.83;23.92;;;-3275.00;90.60;;;;;;5056786;28;20085;-44
2023/12/01 07:47:58;;;;;;;40.03;24.10;;;-3275.00;90.70;;;;;;5052977;28;20035;-45
2023/12/01 07:50:25;;;;;;;38.08;22.17;;;-3275.00;90.60;;;;;;5055492;28;20044;-44
2023/12/01 07:52:52;;;;;;;34.67;22.48;;;-3275.00;90.60;;;;;;5071816;28;20056;-46
2023/12/01 07:55:19;;;;;;;37.75;21.27;;;-3275.00;90.50;;;;;;5070238;28;20394;-47
2023/12/01 07:57:46;;;;;;;32.90;19.85;;;-3275.00;90.50;;;;;;5078033;28;20104;-45
2023/12/01 08:00:18;;;;;;;35.33;20.73;;;-3275.00;90.50;;;;;;5062959;28;20029;-44
2023/12/01 08:02:48;;;;;;;36.28;20.30;;;-3275.10;90.50;;;;;;5073157;28;20053;-44
2023/12/01 08:05:13;;;;;;;34.22;20.63;;;-3275.00;90.30;;;;;;5024726;28;20040;-45
2023/12/01 08:07:51;;;;;;;35.80;19.65;;;-3275.00;90.40;;;;;;5080317;28;20016;-45
2023/12/01 08:10:22;;;;;;;32.97;20.83;;;-3274.90;90.30;;;;;;5055984;28;20543;-45
2023/12/01 08:12:56;;;;;;;32.58;19.80;;;-3275.10;90.60;;;;;;5052000;28;20044;-45
2023/12/01 08:15:24;;;;;;;35.97;19.42;;;-3275.10;90.50;;;;;;5063435;28;20037;-47
2023/12/01 08:17:53;;;;;;;34.88;21.38;;;-3275.10;90.40;;;;;;5067944;28;20044;-45
2023/12/01 08:20:19;;;;;;;29.48;19.30;;;-3275.20;90.40;;;;;;5067312;28;20467;-45
2023/12/01 08:22:46;;;;;;;33.38;20.65;;;-3275.20;90.50;;;;;;5082958;28;20040;-45
2023/12/01 08:25:14;;;;;;;34.65;21.67;;;-3275.20;90.40;;;;;;5052599;28;20029;-45
2023/12/01 08:27:41;;;;;;;36.42;22.35;;;-3275.30;90.50;;;;;;5072813;28;21120;-44
2023/12/01 08:30:10;;;;;;;34.88;22.40;;;-3275.30;90.50;;;;;;5064558;28;20032;-46
2023/12/01 08:32:38;;;;;;;38.53;23.17;;;-3275.30;90.60;;;;;;5035115;28;20039;-43
2023/12/01 08:35:08;;;;;;;37.80;22.15;;;-3275.30;90.50;;;;;;5067883;28;20655;-47
2023/12/01 08:37:36;;;;;;;38.83;21.98;;;-3275.30;90.50;;;;;;5084481;28;20491;-47
2023/12/01 08:40:04;;;;;;;36.25;22.02;;;-3275.40;90.60;;;;;;5063951;28;20513;-44
2023/12/01 08:42:31;;;;;;;36.90;21.77;;;-3275.40;90.40;;;;;;5082230;28;20509;-46
2023/12/01 08:45:01;;;;;;;35.60;21.95;;;-3275.40;90.30;;;;;;5083312;28;20095;-45
2023/12/01 08:47:32;;;;;;;35.13;20.38;;;-3275.40;90.20;;;;;;5082641;28;20025;-48
2023/12/01 08:49:59;;;;;;;33.97;20.33;;;-3275.40;90.40;;;;;;5084022;28;20044;-49
2023/12/01 08:52:26;;;;;;;36.05;20.65;;;-3275.50;90.50;;;;;;5085159;28;20123;-48
2023/12/01 08:54:52;;;;;;;37.30;20.63;;;-3275.60;90.30;;;;;;5083802;28;20102;-50
2023/12/01 08:57:23;;;;;;;33.83;21.02;;;-3275.60;90.40;;;;;;5085058;28;20036;-48
2023/12/01 08:59:52;;;;;;;35.70;21.58;;;-3275.70;90.20;;;;;;5084589;28;20028;-47
2023/12/01 09:02:22;;;;;;;37.35;24.15;;;-3275.70;90.00;;;;;;5083092;28;20036;-47
2023/12/01 09:04:50;;;;;;;31.63;20.58;;;-3275.60;89.90;;;;;;5081801;28;20064;-47
2023/12/01 09:07:17;;;;;;;29.80;19.67;;;-3275.60;89.90;;;;;;5083699;28;20071;-46
2023/12/01 09:09:45;;;;;;;33.53;20.27;;;-3275.60;90.00;;;;;;5083362;28;20247;-50
2023/12/01 09:12:12;;;;;;;30.77;18.65;;;-3275.60;89.90;;;;;;5079911;28;20040;-48
2023/12/01 09:14:41;;;;;;;31.85;19.50;;;-3275.70;90.10;;;;;;5083525;28;20103;-47
2023/12/01 09:17:07;;;;;;;32.83;20.65;;;-3275.70;90.10;;;;;;5073220;28;20048;-45
2023/12/01 09:19:34;;;;;;;34.13;20.77;;;-3275.80;90.10;;;;;;5073918;28;20139;-47
2023/12/01 09:22:01;;;;;;;34.45;20.85;;;-3275.80;90.20;;;;;;5054982;28;20063;-47
2023/12/01 09:24:30;;;;;;;34.75;20.20;;;-3275.90;90.20;;;;;;5074670;28;20035;-45
2023/12/01 09:26:59;;;;;;;29.00;18.27;;;-3276.00;90.20;;;;;;5073826;28;20024;-45
2023/12/01 09:29:26;;;;;;;;;;;-3276.10;90.30;;;;;;5074066;28;20020;-47
2023/12/01 09:31:53;;;;;;;30.45;18.73;;;-3276.10;90.00;;;;;;5073038;28;19904;-46
2023/12/01 09:34:19;;;;;;;31.70;19.30;;;-3276.20;90.40;;;;;;5073267;28;20039;-46
2023/12/01 09:36:46;;;;;;;30.80;18.77;;;-3276.30;90.50;;;;;;5065078;28;20021;-46
2023/12/01 09:39:16;;;;;;;31.40;20.33;;;-3276.40;90.40;;;;;;5035452;28;20079;-45
2023/12/01 09:41:43;;;;;;;32.28;19.95;;;-3276.40;90.30;;;;;;5054746;28;20044;-46
2023/12/01 09:44:09;;;;;;;30.77;19.90;;;-3276.60;90.50;;;;;;5073260;28;20032;-45
2023/12/01 09:46:37;;;;;;;26.67;18.65;;;-3276.70;90.40;;;;;;5071835;28;20077;-45
2023/12/01 09:49:08;;;;;;;30.08;19.00;;;0.00;90.60;;;;;;5073411;28;20021;-49
2023/12/01 09:51:36;;;;;;;25.15;16.55;;;0.10;90.50;;;;;;5056065;28;20024;-46
2023/12/01 09:54:05;;;;;;;20.77;15.60;;;0.30;90.20;;;;;;5056601;28;20036;-46
2023/12/01 09:56:32;;;;;;;21.67;13.25;;;0.40;90.00;;;;;;5060787;28;20582;-46
2023/12/01 09:58:59;;;;;;;18.67;12.98;;;0.50;89.90;;;;;;5036100;28;20028;-46
2023/12/01 10:01:27;;;;;;;12.68;8.65;;;0.50;89.70;;;;;;5051265;28;20037;-46
2023/12/01 10:03:55;;;;;;;11.38;6.40;;;0.50;89.60;;;;;;5053513;28;20362;-45
2023/12/01 10:06:24;;;;;;;5.63;3.95;;;0.50;89.20;;;;;;5053332;28;20020;-45
2023/12/01 10:09:00;;;;;;;8.82;3.83;;;0.40;89.00;;;;;;5053218;28;20126;-48
2023/12/01 10:11:26;;;;;;;6.45;4.57;;;0.40;88.70;;;;;;5060657;28;20436;-48
2023/12/01 10:13:53;;;;;;;6.22;3.80;;;0.40;88.70;;;;;;5062427;28;20120;-46
2023/12/01 10:16:21;;;;;;;5.38;3.45;;;0.40;88.60;;;;;;5071095;28;20073;-48
2023/12/01 10:19:06;;;;;;;5.45;2.90;;;0.50;88.60;;;;;;5090219;28;20373;-48
2023/12/01 10:21:38;;;;;;;5.95;2.83;;;0.50;88.30;;;;;;5092593;28;20031;-46
2023/12/01 10:24:28;;;;;;;4.53;2.67;;;0.50;87.90;;;;;;5076129;28;20134;-45
2023/12/01 10:26:56;;;;;;;4.97;3.08;;;0.40;87.40;;;;;;5078271;28;20028;-46
2023/12/01 10:29:31;;;;;;;5.05;2.88;;;0.50;87.60;;;;;;5088655;28;20031;-45
2023/12/01 10:32:17;;;;;;;5.60;3.58;;;0.50;87.20;;;;;;5053317;28;20029;-48
2023/12/01 10:34:54;;;;;;;5.00;3.10;;;0.60;87.40;;;;;;5072213;28;20035;-50
2023/12/01 10:37:22;;;;;;;6.22;3.88;;;0.70;87.40;;;;;;5062161;28;20054;-47
2023/12/01 10:39:54;;;;;;;66.60;34.25;;;0.70;87.50;;;;;;5071111;28;20035;-48
2023/12/01 10:42:21;;;;;;;106.47;46.10;;;0.60;87.60;;;;;;5050633;28;20032;-46
2023/12/01 10:44:50;;;;;;;83.82;38.70;;;0.70;87.80;;;;;;5075124;28;20028;-48
2023/12/01 10:47:17;;;;;;;13.13;7.50;;;0.70;88.00;;;;;;5068927;28;20070;-49
2023/12/01 10:49:45;;;;;;;6.88;3.50;;;0.70;88.00;;;;;;5071113;28;20086;-47
2023/12/01 10:52:14;;;;;;;6.03;3.17;;;0.70;87.80;;;;;;5064822;28;20053;-51
2023/12/01 10:54:43;;;;;;;4.53;2.50;;;0.70;87.60;;;;;;5087472;28;20111;-48
2023/12/01 10:57:47;;;;;;;5.43;2.88;;;0.80;87.70;;;;;;5086258;28;20024;-49
2023/12/01 11:00:32;;;;;;;4.70;2.63;;;0.90;87.50;;;;;;5082914;28;20749;-50
2023/12/01 11:03:06;;;;;;;4.00;2.30;;;0.90;87.30;;;;;;5065723;28;20044;-50
2023/12/01 11:05:37;;;;;;;4.22;2.30;;;1.00;87.30;;;;;;5052402;28;20032;-47
2023/12/01 11:08:31;;;;;;;3.53;2.08;;;0.90;86.70;;;;;;5066182;28;20025;-49
2023/12/01 11:11:44;;;;;;;5.50;2.60;;;1.00;86.80;;;;;;5068722;28;20024;-48
2023/12/01 11:14:24;;;;;;;15.55;10.80;;;1.00;86.70;;;;;;5082703;28;20028;-49
2023/12/01 11:16:52;;;;;;;8.90;5.43;;;1.00;86.70;;;;;;5063651;28;20044;-53
2023/12/01 11:19:23;;;;;;;5.40;2.85;;;1.00;86.80;;;;;;5079565;28;20032;-50
2023/12/01 11:21:56;;;;;;;3.55;2.00;;;1.00;86.30;;;;;;5070076;28;20043;-53
2023/12/01 11:24:35;;;;;;;4.22;2.58;;;0.90;86.10;;;;;;5029713;28;20119;-53
2023/12/01 11:27:07;;;;;;;4.65;1.98;;;0.80;85.70;;;;;;5079157;28;20036;-51
2023/12/01 11:29:39;;;;;;;3.75;2.03;;;0.70;85.90;;;;;;5064281;28;20036;-50
2023/12/01 11:32:08;;;;;;;5.00;1.80;;;0.70;85.70;;;;;;5073788;28;20025;-48
2023/12/01 11:34:56;;;;;;;4.40;2.13;;;0.60;86.10;;;;;;5069565;28;20617;-49
2023/12/01 11:38:06;;;;;;;3.05;2.08;;;0.70;86.10;;;;;;5076433;28;20475;-50
2023/12/01 11:40:42;;;;;;;3.55;2.42;;;0.70;86.50;;;;;;5082052;28;20033;-51
2023/12/01 11:43:11;;;;;;;13.75;8.35;;;0.70;86.60;;;;;;5066548;28;20044;-47
2023/12/01 11:45:44;;;;;;;19.77;12.70;;;0.70;86.50;;;;;;5075989;28;20349;-47
2023/12/01 11:48:10;;;;;;;18.98;13.00;;;0.70;86.60;;;;;;5072758;28;20318;-47
2023/12/01 11:50:40;;;;;;;22.63;14.73;;;0.70;86.60;;;;;;5067170;28;20028;-48
2023/12/01 11:53:17;;;;;;;24.98;15.88;;;0.70;86.90;;;;;;5074115;28;20508;-49
2023/12/01 11:55:52;;;;;;;24.65;16.77;;;0.50;86.80;;;;;;5063175;28;20037;-47
2023/12/01 11:58:37;;;;;;;21.30;14.55;;;0.50;87.40;;;;;;5077600;28;20099;-47
2023/12/01 12:01:06;;;;;;;22.73;14.73;;;0.50;87.70;;;;;;5077818;28;20457;-47
2023/12/01 12:03:34;;;;;;;23.17;15.73;;;0.50;87.70;;;;;;5085508;28;20029;-52
2023/12/01 12:06:25;;;;;;;22.85;15.38;;;0.40;87.40;;;;;;5073254;28;20028;-48
2023/12/01 12:08:54;;;;;;;25.50;16.27;;;0.40;87.60;;;;;;5078545;28;20028;-47
2023/12/01 12:11:23;;;;;;;27.95;17.02;;;0.40;87.80;;;;;;5081867;28;20024;-51
2023/12/01 12:13:58;;;;;;;;;;;0.40;87.80;;;;;;5086998;28;20032;-47
2023/12/01 12:16:27;;;;;;;21.35;14.05;;;0.40;88.00;;;;;;5073310;28;19939;-48
2023/12/01 12:19:03;;;;;;;17.08;11.07;;;0.50;88.00;;;;;;5065750;28;20049;-48
2023/12/01 12:21:31;;;;;;;15.40;9.07;;;0.50;87.90;;;;;;5061600;28;20446;-46
2023/12/01 12:24:00;;;;;;;10.90;6.25;;;0.50;88.00;;;;;;5051649;28;20067;-49